Time;durP1;ratioP1;P1;durP2;ratioP2;P2;SDS_P1;SDS_P2;PMS_P1;PMS_P2;Temp;Humidity;BMP_temperature;BMP_pressure;BME280_temperature;BME280_humidity;BME280_pressure;Samples;Min_cycle;Max_cycle;Signal;HPM_P1;HPM_P2
2023/06/05 00:00:14;;;;;;;2.80;1.20;;;;;;;14.98;100.00;98763.38;5064342;28;20033;-73
2023/06/05 00:02:39;;;;;;;2.70;1.27;;;;;;;14.89;100.00;98766.44;5051551;28;20047;-73
2023/06/05 00:05:08;;;;;;;3.22;1.35;;;;;;;14.89;100.00;98774.59;5049567;28;20885;-73
2023/06/05 00:07:34;;;;;;;3.10;1.38;;;;;;;14.94;100.00;98784.81;5044055;28;20029;-73
2023/06/05 00:09:59;;;;;;;3.05;1.20;;;;;;;14.85;100.00;98786.19;5063059;28;20405;-73
2023/06/05 00:12:25;;;;;;;2.83;1.38;;;;;;;14.75;100.00;98778.59;5053879;28;20386;-73
2023/06/05 00:14:50;;;;;;;2.83;1.30;;;;;;;14.81;100.00;98791.28;5045446;28;20126;-73
2023/06/05 00:17:16;;;;;;;2.90;1.30;;;;;;;14.77;100.00;98783.81;5069253;28;20020;-73
2023/06/05 00:19:41;;;;;;;2.88;1.40;;;;;;;14.68;100.00;98783.31;5042539;28;20020;-73
2023/06/05 00:22:07;;;;;;;1.90;1.20;;;;;;;14.74;100.00;98790.53;5056400;28;20025;-73
2023/06/05 00:24:32;;;;;;;2.13;1.10;;;;;;;14.73;100.00;98793.50;5053636;28;20135;-73
2023/06/05 00:26:57;;;;;;;5.57;1.38;;;;;;;14.72;100.00;98792.66;5071598;28;20359;-73
2023/06/05 00:29:23;;;;;;;3.58;1.55;;;;;;;14.58;100.00;98781.13;5070098;28;20029;-73
2023/06/05 00:31:48;;;;;;;2.03;1.20;;;;;;;14.64;100.00;98788.34;5070576;28;20385;-73
2023/06/05 00:34:14;;;;;;;3.63;1.30;;;;;;;14.68;100.00;98810.53;5069274;22;20372;-65
2023/06/05 00:36:40;;;;;;;3.38;1.40;;;;;;;14.43;100.00;98810.59;5011752;28;20032;-66
2023/06/05 00:39:06;;;;;;;3.28;1.50;;;;;;;14.38;100.00;98810.44;5017659;28;20025;-65
2023/06/05 00:41:31;;;;;;;5.03;1.20;;;;;;;14.41;100.00;98807.28;5017891;28;20481;-64
2023/06/05 00:43:57;;;;;;;3.33;1.20;;;;;;;14.29;100.00;98807.22;5003379;28;20477;-64
2023/06/05 00:46:23;;;;;;;4.00;1.50;;;;;;;14.18;100.00;98806.09;5005357;28;20119;-64
2023/06/05 00:48:50;;;;;;;4.57;1.38;;;;;;;14.03;100.00;98802.91;5011387;28;20434;-64
2023/06/05 00:51:16;;;;;;;2.30;1.33;;;;;;;13.96;100.00;98808.44;5009925;28;20021;-64
2023/06/05 00:53:44;;;;;;;2.55;1.50;;;;;;;13.78;100.00;98797.50;5001541;28;20022;-64
2023/06/05 00:56:09;;;;;;;3.25;1.67;;;;;;;13.69;100.00;98809.72;5022144;28;20027;-64
2023/06/05 00:58:35;;;;;;;2.60;1.30;;;;;;;13.56;100.00;98807.97;5024675;28;20022;-65
2023/06/05 01:01:03;;;;;;;3.63;1.42;;;;;;;13.46;100.00;98813.06;5011291;28;20021;-64
2023/06/05 01:03:33;;;;;;;2.58;1.40;;;;;;;13.30;100.00;98812.53;5001986;28;20124;-65
2023/06/05 01:06:03;;;;;;;2.90;1.55;;;;;;;13.19;100.00;98807.81;5004285;28;20108;-65
2023/06/05 01:08:38;;;;;;;3.65;1.33;;;;;;;13.14;100.00;98805.75;5009312;28;20033;-64
2023/06/05 01:11:07;;;;;;;5.93;1.40;;;;;;;13.05;100.00;98809.78;5008281;28;20089;-64
2023/06/05 01:13:35;;;;;;;3.30;1.30;;;;;;;12.94;100.00;98811.31;5000629;28;20472;-64
2023/06/05 01:16:04;;;;;;;3.63;1.58;;;;;;;12.81;100.00;98813.25;5007674;28;20030;-64
2023/06/05 01:18:30;;;;;;;2.95;1.45;;;;;;;12.77;100.00;98812.88;5018468;28;20477;-64
2023/06/05 01:21:01;;;;;;;2.55;1.52;;;;;;;12.70;100.00;98812.91;5014230;28;20087;-67
2023/06/05 01:23:28;;;;;;;7.30;1.27;;;;;;;12.64;100.00;98810.22;5010382;28;20033;-64
2023/06/05 01:25:59;;;;;;;2.80;1.50;;;;;;;12.63;100.00;98816.72;5007382;28;20128;-64
2023/06/05 01:28:29;;;;;;;2.40;1.30;;;;;;;12.59;100.00;98813.59;5024024;28;20030;-63
2023/06/05 01:31:15;;;;;;;2.78;1.50;;;;;;;12.46;100.00;98817.19;5014800;28;20030;-64
2023/06/05 01:33:49;;;;;;;2.20;1.40;;;;;;;12.47;100.00;98813.44;5011429;28;20025;-63
2023/06/05 01:36:15;;;;;;;2.58;1.50;;;;;;;12.44;100.00;98819.31;5005261;28;20083;-63
2023/06/05 01:38:42;;;;;;;2.45;1.45;;;;;;;12.42;100.00;98817.84;5005794;28;20492;-64
2023/06/05 01:41:13;;;;;;;3.67;1.52;;;;;;;12.36;100.00;98805.97;5007985;28;20078;-64
2023/06/05 01:43:39;;;;;;;3.05;1.52;;;;;;;12.30;100.00;98814.97;5008557;28;20393;-63
2023/06/05 01:46:07;;;;;;;5.10;1.65;;;;;;;12.43;100.00;98817.63;5011852;28;20028;-63
2023/06/05 01:48:33;;;;;;;5.63;1.83;;;;;;;12.25;100.00;98812.06;5020812;28;20028;-64
2023/06/05 01:51:00;;;;;;;5.18;1.40;;;;;;;12.14;100.00;98810.84;4998442;28;20029;-64
2023/06/05 01:53:25;;;;;;;3.50;1.52;;;;;;;12.12;100.00;98812.94;5021046;28;20038;-64
2023/06/05 01:55:56;;;;;;;4.57;1.58;;;;;;;12.09;100.00;98809.81;5010104;28;20044;-63
2023/06/05 01:58:23;;;;;;;3.20;1.65;;;;;;;12.05;100.00;98815.69;5030193;28;20045;-63
2023/06/05 02:00:49;;;;;;;3.17;1.50;;;;;;;12.09;100.00;98809.81;5030517;28;20029;-64
2023/06/05 02:03:17;;;;;;;2.85;1.60;;;;;;;12.03;100.00;98808.81;5023669;28;20068;-64
2023/06/05 02:05:43;;;;;;;2.42;1.45;;;;;;;11.99;100.00;98810.25;5020762;28;20035;-64
2023/06/05 02:08:09;;;;;;;2.03;1.13;;;;;;;12.00;100.00;98801.91;5020097;28;20037;-63
2023/06/05 02:10:43;;;;;;;3.47;1.40;;;;;;;12.06;100.00;98809.19;5015056;28;20064;-63
2023/06/05 02:13:09;;;;;;;2.30;1.42;;;;;;;12.08;100.00;98803.56;5021633;28;20017;-63
2023/06/05 02:15:35;;;;;;;2.53;1.48;;;;;;;11.98;100.00;98798.59;5016405;28;20116;-64
2023/06/05 02:18:02;;;;;;;3.05;1.50;;;;;;;11.92;100.00;98798.59;5021003;28;20018;-63
2023/06/05 02:20:28;;;;;;;2.20;1.50;;;;;;;11.80;100.00;98796.50;5013850;28;20108;-64
2023/06/05 02:22:54;;;;;;;2.90;1.75;;;;;;;11.78;100.00;98809.44;5027004;28;20168;-64
2023/06/05 02:25:26;;;;;;;3.72;1.95;;;;;;;11.69;100.00;98809.88;5032486;28;20038;-63
2023/06/05 02:27:53;;;;;;;4.68;1.35;;;;;;;11.60;100.00;98811.94;4999709;28;20165;-64
2023/06/05 02:30:18;;;;;;;3.45;1.67;;;;;;;11.50;100.00;98812.41;5007124;28;20025;-63
2023/06/05 02:32:44;;;;;;;3.80;1.40;;;;;;;11.35;100.00;98801.75;5016513;28;20036;-64
2023/06/05 02:35:13;;;;;;;3.50;1.77;;;;;;;11.35;100.00;98811.75;5016080;28;20068;-64
2023/06/05 02:37:44;;;;;;;3.80;1.80;;;;;;;11.26;100.00;98802.16;5015961;28;20036;-64
2023/06/05 02:40:11;;;;;;;3.60;1.67;;;;;;;11.36;100.00;98810.72;5016896;28;20036;-63
2023/06/05 02:42:36;;;;;;;4.88;1.92;;;;;;;11.29;100.00;98804.44;5007768;28;20026;-64
2023/06/05 02:45:02;;;;;;;2.00;1.30;;;;;;;11.22;100.00;98815.28;5009996;28;20036;-64
2023/06/05 02:47:28;;;;;;;6.22;1.63;;;;;;;11.17;100.00;98815.91;5008920;28;20033;-63
2023/06/05 02:49:54;;;;;;;8.70;1.88;;;;;;;11.21;100.00;98818.19;5027040;28;20029;-63
2023/06/05 02:52:20;;;;;;;3.53;1.60;;;;;;;11.26;100.00;98808.41;5026668;28;20049;-64
2023/06/05 02:54:46;;;;;;;5.60;1.73;;;;;;;11.26;100.00;98816.53;5011558;28;20032;-63
2023/06/05 02:57:12;;;;;;;3.08;1.80;;;;;;;11.24;100.00;98810.50;5022379;28;20029;-64
2023/06/05 02:59:39;;;;;;;3.83;1.73;;;;;;;11.24;100.00;98812.38;5020067;28;20454;-64
2023/06/05 03:02:08;;;;;;;2.63;1.58;;;;;;;11.18;100.00;98814.03;5028781;28;20026;-64
2023/06/05 03:04:33;;;;;;;4.85;1.80;;;;;;;11.03;100.00;98816.09;5027736;28;20045;-64
2023/06/05 03:07:03;;;;;;;12.07;2.03;;;;;;;11.04;100.00;98818.59;5015460;28;20025;-64
2023/06/05 03:09:30;;;;;;;3.15;1.60;;;;;;;11.07;100.00;98822.78;5028322;28;20041;-64
2023/06/05 03:11:56;;;;;;;3.80;1.83;;;;;;;11.11;100.00;98822.16;5010337;28;20026;-64
2023/06/05 03:14:21;;;;;;;2.92;1.60;;;;;;;11.06;100.00;98821.94;5026692;28;20032;-64
2023/06/05 03:16:46;;;;;;;3.67;1.67;;;;;;;11.06;100.00;98816.53;5009474;28;20025;-64
2023/06/05 03:19:12;;;;;;;2.63;1.50;;;;;;;10.93;100.00;98820.03;5013195;28;20037;-64
2023/06/05 03:21:39;;;;;;;6.90;2.25;;;;;;;10.96;100.00;98821.50;5016697;28;20072;-64
2023/06/05 03:24:07;;;;;;;4.05;1.73;;;;;;;10.91;100.00;98824.00;5026008;28;20399;-64
2023/06/05 03:26:32;;;;;;;3.17;1.65;;;;;;;10.84;100.00;98817.72;5026599;28;20026;-64
2023/06/05 03:28:58;;;;;;;3.92;1.70;;;;;;;10.84;100.00;98823.13;5014416;28;20075;-64
2023/06/05 03:31:24;;;;;;;3.33;1.63;;;;;;;10.92;100.00;98822.94;5015891;28;20519;-64
2023/06/05 03:33:49;;;;;;;5.07;1.73;;;;;;;10.91;100.00;98818.59;5006949;28;20041;-64
2023/06/05 03:36:17;;;;;;;2.92;1.40;;;;;;;10.84;100.00;98828.56;4992215;28;20057;-64
2023/06/05 03:38:43;;;;;;;4.30;2.00;;;;;;;10.77;100.00;98825.84;5016374;28;20416;-64
2023/06/05 03:41:09;;;;;;;3.75;2.15;;;;;;;10.71;100.00;98824.75;5031492;28;20029;-66
2023/06/05 03:43:36;;;;;;;3.95;2.22;;;;;;;10.75;100.00;98834.16;5005608;28;20025;-67
2023/06/05 03:46:01;;;;;;;4.32;2.00;;;;;;;10.82;100.00;98830.63;5013676;28;20041;-64
2023/06/05 03:48:27;;;;;;;3.83;1.80;;;;;;;10.85;100.00;98830.25;5012794;28;20031;-63
2023/06/05 03:50:53;;;;;;;4.25;1.95;;;;;;;10.87;100.00;98833.56;5008423;28;20105;-64
2023/06/05 03:53:19;;;;;;;6.57;1.85;;;;;;;10.93;100.00;98827.34;5027941;28;20112;-65
2023/06/05 03:55:46;;;;;;;5.18;1.80;;;;;;;11.03;100.00;98833.19;5006973;28;20037;-67
2023/06/05 03:58:15;;;;;;;3.60;1.88;;;;;;;11.03;100.00;98833.19;5009399;28;20436;-64
2023/06/05 04:00:42;;;;;;;2.70;1.45;;;;;;;11.11;100.00;98835.69;5008558;28;20464;-63
2023/06/05 04:03:09;;;;;;;4.05;1.90;;;;;;;11.11;100.00;98835.69;5010744;28;20028;-63
2023/06/05 04:05:35;;;;;;;4.63;2.22;;;;;;;11.06;100.00;98840.91;5012859;28;20057;-63
2023/06/05 04:08:01;;;;;;;9.98;2.33;;;;;;;11.15;100.00;98847.78;5007226;28;20021;-63
2023/06/05 04:10:26;;;;;;;3.90;2.03;;;;;;;11.21;100.00;98850.69;5014676;28;20036;-63
2023/06/05 04:12:52;;;;;;;4.90;2.00;;;;;;;11.20;100.00;98852.56;5010497;28;20072;-63
2023/06/05 04:15:17;;;;;;;4.25;2.22;;;;;;;11.28;100.00;98851.56;5001334;28;20060;-63
2023/06/05 04:17:43;;;;;;;9.88;2.47;;;;;;;11.29;100.00;98845.94;5009687;28;20082;-63
2023/06/05 04:20:13;;;;;;;7.78;2.10;;;;;;;11.34;100.00;98850.72;5016897;28;20040;-63
2023/06/05 04:22:39;;;;;;;3.65;2.33;;;;;;;11.35;100.00;98853.22;5010713;28;20025;-67
2023/06/05 04:25:05;;;;;;;6.40;2.22;;;;;;;11.45;100.00;98852.81;5009561;28;20060;-63
2023/06/05 04:27:30;;;;;;;9.52;2.42;;;;;;;11.52;100.00;98850.94;5012770;28;20083;-63
2023/06/05 04:29:56;;;;;;;3.28;2.20;;;;;;;11.57;100.00;98853.84;5011127;28;20029;-63
2023/06/05 04:32:21;;;;;;;3.72;2.20;;;;;;;11.65;100.00;98857.41;5013448;28;20068;-64
2023/06/05 04:34:56;;;;;;;3.75;2.00;;;;;;;11.71;100.00;98867.38;5007396;28;20033;-66
2023/06/05 04:37:21;;;;;;;3.33;1.98;;;;;;;11.80;100.00;98864.25;5004531;28;20057;-67
2023/06/05 04:39:50;;;;;;;5.95;2.38;;;;;;;11.89;100.00;98855.94;5013623;28;20153;-66
2023/06/05 04:42:17;;;;;;;4.20;2.15;;;;;;;12.02;100.00;98850.50;5031612;28;20108;-67
2023/06/05 04:44:43;;;;;;;5.57;2.13;;;;;;;12.05;100.00;98850.94;5043792;23;20037;-72
2023/06/05 04:47:08;;;;;;;13.90;2.72;;;;;;;12.15;100.00;98846.94;5062479;28;20089;-71
2023/06/05 04:49:33;;;;;;;9.63;2.60;;;;;;;12.14;100.00;98835.25;5050179;28;20609;-72
2023/06/05 04:51:59;;;;;;;7.50;2.30;;;;;;;12.24;100.00;98841.06;5053580;28;20529;-72
2023/06/05 04:54:25;;;;;;;5.93;2.10;;;;;;;12.41;100.00;98846.03;5050593;28;20025;-72
2023/06/05 04:56:50;;;;;;;6.30;1.92;;;;;;;12.49;100.00;98843.88;5040169;28;20471;-72
2023/06/05 04:59:15;;;;;;;5.60;2.47;;;;;;;12.63;100.00;98854.72;5053783;28;20406;-72
2023/06/05 05:01:41;;;;;;;8.35;2.60;;;;;;;12.82;100.00;98844.81;5063516;28;20040;-72
2023/06/05 05:04:06;;;;;;;12.73;2.47;;;;;;;12.92;100.00;98848.72;5052657;28;20036;-72
2023/06/05 05:06:31;;;;;;;5.70;2.13;;;;;;;13.00;100.00;98833.22;5055011;28;20060;-72
2023/06/05 05:08:57;;;;;;;11.68;1.90;;;;;;;13.28;100.00;98843.72;5051652;28;20025;-70
2023/06/05 05:11:22;;;;;;;4.30;2.15;;;;;;;13.49;100.00;98845.22;5047847;28;20029;-70
2023/06/05 05:13:47;;;;;;;5.13;2.13;;;;;;;13.63;100.00;98846.78;5053586;28;20096;-70
2023/06/05 05:16:13;;;;;;;7.15;1.95;;;;;;;13.68;100.00;98844.25;5051219;28;20027;-70
2023/06/05 05:18:40;;;;;;;7.35;2.50;;;;;;;13.87;100.00;98841.56;5043895;28;20116;-70
2023/06/05 05:21:06;;;;;;;6.47;2.00;;;;;;;14.13;100.00;98849.47;5037905;28;20160;-70
2023/06/05 05:23:32;;;;;;;2.85;1.88;;;;;;;14.31;100.00;98851.38;5040057;28;20030;-71
2023/06/05 05:25:57;;;;;;;8.38;1.90;;;;;;;14.53;100.00;98854.47;5037600;28;20029;-71
2023/06/05 05:28:23;;;;;;;7.53;1.80;;;;;;;14.82;100.00;98852.03;5037884;28;20077;-70
2023/06/05 05:30:48;;;;;;;4.53;2.00;;;;;;;14.93;100.00;98853.97;5025271;28;20017;-74
2023/06/05 05:33:14;;;;;;;4.30;2.05;;;;;;;15.11;100.00;98848.47;5023268;28;20030;-73
2023/06/05 05:35:40;;;;;;;3.75;1.80;;;;;;;15.25;100.00;98834.69;5022637;28;20481;-74
2023/06/05 05:38:07;;;;;;;5.22;1.73;;;;;;;15.42;100.00;98843.81;5027525;28;20112;-75
2023/06/05 05:40:32;;;;;;;3.00;1.88;;;;;;;15.60;100.00;98847.53;5023981;28;20479;-74
2023/06/05 05:42:58;;;;;;;3.55;2.03;;;;;;;15.80;100.00;98859.00;5033504;28;20014;-75
2023/06/05 05:45:23;;;;;;;3.08;1.55;;;;;;;16.10;100.00;98858.88;5023400;28;20037;-74
2023/06/05 05:47:48;;;;;;;4.20;1.90;;;;;;;16.22;100.00;98858.88;5027669;28;20033;-74
2023/06/05 05:50:14;;;;;;;2.92;1.67;;;;;;;16.49;100.00;98855.63;5031427;28;20128;-73
2023/06/05 05:52:39;;;;;;;2.17;1.50;;;;;;;16.74;100.00;98850.69;5042968;28;20022;-73
2023/06/05 05:55:05;;;;;;;2.65;1.50;;;;;;;16.92;100.00;98851.59;5041626;28;20081;-74
2023/06/05 05:57:31;;;;;;;6.78;1.73;;;;;;;17.11;100.00;98844.88;5034889;28;20029;-74
2023/06/05 05:59:56;;;;;;;2.85;1.33;;;;;;;17.40;100.00;98840.22;5048450;28;20029;-74
2023/06/05 06:02:21;;;;;;;3.97;2.17;;;;;;;17.63;100.00;98852.91;5023245;28;20029;-74
2023/06/05 06:04:48;;;;;;;3.20;1.60;;;;;;;17.49;100.00;98848.84;5049371;28;20032;-74
2023/06/05 06:07:13;;;;;;;8.57;1.88;;;;;;;17.46;100.00;98858.34;5034152;28;20041;-72
2023/06/05 06:09:39;;;;;;;4.68;2.15;;;;;;;17.45;100.00;98861.38;5030581;28;20367;-71
2023/06/05 06:12:07;;;;;;;6.53;1.60;;;;;;;16.82;100.00;98850.34;5033683;28;20029;-72
2023/06/05 06:14:33;;;;;;;3.63;1.60;;;;;;;17.17;100.00;98863.03;5024732;28;20471;-73
2023/06/05 06:16:58;;;;;;;8.20;1.80;;;;;;;17.68;100.00;98850.28;5044100;28;20043;-75
2023/06/05 06:19:25;;;;;;;8.45;1.98;;;;;;;18.07;100.00;98858.53;5024104;28;20063;-73
2023/06/05 06:21:51;;;;;;;3.28;1.73;;;;;;;18.43;100.00;98845.38;5036972;28;20056;-73
2023/06/05 06:24:19;;;;;;;3.42;1.67;;;;;;;18.52;100.00;98859.44;5014747;28;20116;-76
2023/06/05 06:26:46;;;;;;;4.15;1.63;;;;;;;18.86;100.00;98849.22;5044180;28;20031;-73
2023/06/05 06:29:14;;;;;;;7.93;1.63;;;;;;;19.32;100.00;98860.69;5013144;28;20029;-74
2023/06/05 06:31:40;;;;;;;5.70;1.60;;;;;;;19.56;100.00;98861.19;5015485;28;20116;-74
2023/06/05 06:36:43;;;;;;;4.05;1.80;;;;;;;20.67;100.00;98847.72;5037701;28;20101;-75
2023/06/05 06:39:09;;;;;;;3.03;1.35;;;;;;;21.02;99.02;98839.59;5042674;28;20031;-74
2023/06/05 06:41:36;;;;;;;2.80;1.40;;;;;;;20.91;93.10;98854.44;5038921;28;20032;-74
2023/06/05 06:44:02;;;;;;;4.28;1.67;;;;;;;21.94;86.98;98852.66;5053377;28;20078;-74
2023/06/05 06:46:27;;;;;;;5.78;1.40;;;;;;;22.59;80.51;98852.03;5048779;28;20106;-74
2023/06/05 06:48:52;;;;;;;2.58;1.52;;;;;;;24.33;71.56;98848.09;5055345;28;20071;-74
2023/06/05 06:51:18;;;;;;;3.53;1.30;;;;;;;26.92;58.54;98847.16;5055283;28;20115;-74
2023/06/05 06:53:44;;;;;;;4.00;1.50;;;;;;;28.95;49.83;98850.72;5055702;28;20119;-74
2023/06/05 06:56:09;;;;;;;2.80;1.35;;;;;;;30.45;44.42;98850.41;5052438;28;20465;-75
2023/06/05 06:58:36;;;;;;;8.15;1.80;;;;;;;31.35;40.82;98846.47;5050744;28;20123;-73
2023/06/05 07:01:01;;;;;;;2.97;1.40;;;;;;;32.42;39.66;98850.44;5073474;28;20024;-73
2023/06/05 07:03:27;;;;;;;2.00;1.40;;;;;;;31.83;39.29;98834.75;5073237;28;20375;-73
2023/06/05 07:05:52;;;;;;;2.50;1.52;;;;;;;32.13;37.92;98839.41;5051688;28;20166;-75
2023/06/05 07:08:17;;;;;;;3.53;1.50;;;;;;;32.57;37.59;98820.13;5054211;28;20678;-73
2023/06/05 07:10:43;;;;;;;2.47;1.42;;;;;;;34.03;36.76;98820.97;5057433;28;20027;-73
2023/06/05 07:13:08;;;;;;;5.70;1.77;;;;;;;34.27;35.31;98831.31;5072794;28;20103;-73
2023/06/05 07:15:33;;;;;;;8.88;1.58;;;;;;;34.51;34.38;98830.31;5074073;28;20020;-73
2023/06/05 07:18:00;;;;;;;4.18;1.42;;;;;;;34.72;34.63;98830.06;5053064;28;20047;-75
2023/06/05 07:20:25;;;;;;;3.30;1.63;;;;;;;35.87;33.87;98833.47;5042373;28;20490;-73
2023/06/05 07:22:50;;;;;;;2.22;1.25;;;;;;;36.71;33.09;98829.00;5070373;28;20016;-72
2023/06/05 07:25:17;;;;;;;4.63;1.50;;;;;;;37.62;31.98;98807.38;5072232;28;20035;-73
2023/06/05 07:27:44;;;;;;;5.82;1.48;;;;;;;37.68;31.67;98825.59;5069706;28;20025;-72
2023/06/05 07:30:10;;;;;;;1.98;1.35;;;;;;;36.18;31.54;98823.22;5071441;28;20082;-74
2023/06/05 07:32:35;;;;;;;3.72;1.67;;;;;;;37.26;31.86;98821.00;5054183;28;20032;-73
2023/06/05 07:35:02;;;;;;;4.78;1.65;;;;;;;36.59;32.03;98834.84;5072585;28;20096;-73
2023/06/05 07:37:27;;;;;;;5.85;1.38;;;;;;;37.31;31.97;98810.56;5052523;28;20097;-74
2023/06/05 07:39:53;;;;;;;1.70;1.10;;;;;;;38.21;31.30;98818.16;5053451;28;20502;-73
2023/06/05 07:42:19;;;;;;;2.33;1.42;;;;;;;38.84;29.77;98824.78;5071671;28;20021;-73
2023/06/05 07:44:44;;;;;;;1.83;1.30;;;;;;;36.91;30.39;98826.06;5072639;28;20480;-74
2023/06/05 07:47:10;;;;;;;5.30;1.50;;;;;;;37.45;30.80;98810.75;5070849;28;20070;-74
2023/06/05 07:49:35;;;;;;;5.47;1.52;;;;;;;37.90;31.95;98811.72;5048779;28;20025;-73
2023/06/05 07:52:01;;;;;;;4.93;1.55;;;;;;;39.23;30.38;98810.91;5052203;28;20070;-73
2023/06/05 07:54:26;;;;;;;2.38;1.52;;;;;;;40.02;29.70;98819.78;5059504;28;20038;-74
2023/06/05 07:56:51;;;;;;;2.58;1.40;;;;;;;39.67;29.38;98824.09;5062679;28;20089;-74
2023/06/05 07:59:22;;;;;;;2.25;1.40;;;;;;;39.96;28.83;98827.06;5053441;28;20107;-74
2023/06/05 08:01:49;;;;;;;3.22;1.45;;;;;;;38.09;30.17;98814.38;5045713;28;20115;-74
2023/06/05 08:04:15;;;;;;;2.90;1.60;;;;;;;35.09;33.85;98822.13;5052602;28;20025;-75
2023/06/05 08:06:41;;;;;;;3.05;1.80;;;;;;;31.61;36.97;98821.13;5054354;28;20024;-74
2023/06/05 08:09:10;;;;;;;5.72;1.60;;;;;;;29.59;41.16;98827.84;5053918;28;20099;-74
2023/06/05 08:11:37;;;;;;;2.20;1.42;;;;;;;30.05;41.26;98825.50;5053332;28;20016;-74
2023/06/05 08:14:03;;;;;;;3.50;1.67;;;;;;;29.91;42.50;98804.22;5041863;28;20398;-75
2023/06/05 08:16:29;;;;;;;3.13;1.50;;;;;;;31.17;41.22;98823.41;5034335;28;20082;-75
2023/06/05 08:18:54;;;;;;;4.85;1.65;;;;;;;34.83;37.72;98800.22;5061750;28;20036;-76
2023/06/05 08:21:20;;;;;;;3.03;1.38;;;;;;;36.51;33.90;98810.50;5070665;28;20040;-75
2023/06/05 08:23:45;;;;;;;5.35;1.65;;;;;;;37.96;32.45;98803.72;5070799;28;20027;-75
2023/06/05 08:26:11;;;;;;;5.72;1.80;;;;;;;39.37;31.06;98802.50;5072132;28;20028;-73
2023/06/05 08:28:40;;;;;;;2.05;1.35;;;;;;;39.95;31.08;98811.25;5047471;28;20036;-75
2023/06/05 08:31:07;;;;;;;5.25;1.35;;;;;;;41.33;29.82;98812.50;5053303;28;20095;-74
2023/06/05 08:33:36;;;;;;;8.27;1.60;;;;;;;40.61;29.29;98805.25;5053629;28;20028;-74
2023/06/05 08:36:03;;;;;;;2.38;1.70;;;;;;;41.02;29.00;98799.97;5070993;28;20031;-74
2023/06/05 08:38:29;;;;;;;3.50;1.50;;;;;;;41.57;28.77;98798.66;5071633;28;20028;-74
2023/06/05 08:41:10;;;;;;;5.47;1.98;;;;;;;42.21;28.73;98786.94;5053492;28;20068;-75
2023/06/05 08:43:37;;;;;;;2.47;1.50;;;;;;;42.33;28.43;98794.16;5068717;28;20031;-75
2023/06/05 08:46:04;;;;;;;;;;;;;;;42.76;28.53;98787.34;5070330;28;20024;-74
2023/06/05 08:48:34;;;;;;;2.38;1.77;;;;;;;42.14;28.44;98784.16;5052566;28;20381;-77
2023/06/05 08:51:00;;;;;;;4.90;1.73;;;;;;;41.48;28.95;98796.22;5070800;28;20028;-74
2023/06/05 08:53:32;;;;;;;2.40;1.70;;;;;;;40.68;30.09;98791.94;5063344;28;20024;-74
2023/06/05 08:55:57;;;;;;;28.23;3.63;;;;;;;40.71;29.70;98793.13;5037760;28;20021;-75
2023/06/05 08:58:23;;;;;;;3.60;2.20;;;;;;;40.97;30.29;98784.19;5053237;28;20021;-74
2023/06/05 09:00:49;;;;;;;5.55;1.73;;;;;;;42.06;29.02;98796.78;5042990;28;20050;-75
2023/06/05 09:03:19;;;;;;;2.60;1.70;;;;;;;42.53;28.11;98790.78;5077878;28;20029;-74
2023/06/05 09:05:45;;;;;;;1.92;1.70;;;;;;;43.18;28.67;98780.44;5075339;28;20107;-74
2023/06/05 09:08:10;;;;;;;5.32;1.70;;;;;;;43.16;27.37;98782.06;5077198;28;20082;-74
2023/06/05 09:10:36;;;;;;;4.63;1.90;;;;;;;45.09;27.00;98781.25;5074677;28;20492;-75
2023/06/05 09:13:03;;;;;;;3.78;1.80;;;;;;;43.96;26.76;98790.00;5063908;28;20025;-74
2023/06/05 09:15:30;;;;;;;3.65;1.65;;;;;;;41.82;28.78;98773.75;5057301;28;20470;-74
2023/06/05 09:18:08;;;;;;;2.03;1.50;;;;;;;40.03;30.00;98782.50;5073415;28;20149;-74
2023/06/05 09:20:34;;;;;;;2.50;1.60;;;;;;;41.42;28.52;98780.00;5070354;28;20052;-74
2023/06/05 09:23:20;;;;;;;2.83;1.50;;;;;;;42.12;28.20;98761.00;5074447;28;20025;-75
2023/06/05 09:25:50;;;;;;;3.38;1.60;;;;;;;41.45;28.22;98780.03;5075175;28;20384;-74
2023/06/05 09:28:15;;;;;;;2.60;1.60;;;;;;;40.09;29.53;98769.59;5050041;28;20032;-74
2023/06/05 09:31:01;;;;;;;3.40;1.80;;;;;;;42.47;27.58;98771.31;5060057;28;20020;-74
2023/06/05 09:33:33;;;;;;;4.00;1.70;;;;;;;42.08;28.12;98770.78;5044612;28;20492;-74
2023/06/05 09:36:03;;;;;;;4.20;1.67;;;;;;;41.90;28.01;98776.56;5056695;28;20162;-75
2023/06/05 09:38:29;;;;;;;3.58;1.70;;;;;;;43.38;27.12;98765.53;5057094;28;20051;-74
2023/06/05 09:41:02;;;;;;;4.90;2.17;;;;;;;43.67;25.78;98755.41;5056139;28;20474;-75
2023/06/05 09:43:28;;;;;;;4.30;2.00;;;;;;;42.38;27.11;98755.97;5069665;28;20020;-74
2023/06/05 09:45:53;;;;;;;4.83;2.30;;;;;;;40.72;25.93;98758.69;5055951;28;20115;-74
2023/06/05 09:48:19;;;;;;;5.53;1.93;;;;;;;40.87;26.18;98748.13;5056034;28;20787;-75
2023/06/05 09:50:45;;;;;;;9.18;1.60;;;;;;;39.50;25.27;98754.03;5056311;28;20282;-74
2023/06/05 09:53:16;;;;;;;2.80;1.70;;;;;;;37.17;27.63;98761.22;5074346;28;20016;-73
2023/06/05 09:55:42;;;;;;;3.50;1.60;;;;;;;37.25;25.31;98745.19;5056607;28;20029;-74
2023/06/05 09:58:13;;;;;;;8.15;1.83;;;;;;;36.63;26.42;98751.16;5060542;28;20024;-74
2023/06/05 10:00:41;;;;;;;8.25;2.08;;;;;;;33.55;29.74;98735.88;5074684;28;20020;-73
2023/06/05 10:03:10;;;;;;;4.67;1.90;;;;;;;33.56;30.84;98752.38;5069654;28;20020;-73
2023/06/05 10:05:39;;;;;;;3.88;1.98;;;;;;;36.25;29.40;98744.47;5073127;28;20327;-73
2023/06/05 10:08:06;;;;;;;3.65;1.65;;;;;;;39.55;27.44;98733.81;5073066;28;20020;-74
2023/06/05 10:10:33;;;;;;;6.82;1.90;;;;;;;39.68;26.01;98729.41;5040925;28;20052;-74
2023/06/05 10:13:00;;;;;;;7.90;2.00;;;;;;;41.77;24.79;98739.31;5054832;28;20494;-74
2023/06/05 10:15:27;;;;;;;3.38;1.60;;;;;;;43.45;25.24;98731.28;5057178;28;20063;-74
2023/06/05 10:17:52;;;;;;;9.38;1.77;;;;;;;41.62;25.42;98735.72;5074295;28;20043;-73
2023/06/05 10:20:18;;;;;;;5.65;1.58;;;;;;;37.51;28.20;98738.69;5055971;28;20032;-73
2023/06/05 10:22:44;;;;;;;3.15;1.83;;;;;;;34.43;30.18;98739.41;5077571;28;20029;-73
2023/06/05 10:25:12;;;;;;;5.43;1.83;;;;;;;36.94;29.19;98740.72;5050168;28;20021;-74
2023/06/05 10:27:55;;;;;;;8.60;2.40;;;;;;;36.94;29.41;98737.88;5056467;28;20039;-73
2023/06/05 10:30:38;;;;;;;7.68;1.77;;;;;;;37.92;29.22;98735.91;5048265;28;20482;-73
2023/06/05 10:33:36;;;;;;;7.15;2.42;;;;;;;40.56;26.89;98734.78;5023610;28;20493;-73
2023/06/05 10:36:16;;;;;;;5.15;1.70;;;;;;;40.27;26.31;98738.47;5040770;28;20044;-73
2023/06/05 10:38:41;;;;;;;9.38;1.77;;;;;;;42.60;25.96;98739.50;5058505;28;20039;-73
2023/06/05 10:41:07;;;;;;;3.00;1.70;;;;;;;43.78;24.79;98729.59;5075414;28;20032;-73
2023/06/05 10:43:36;;;;;;;2.88;1.65;;;;;;;41.81;24.92;98734.38;5070354;28;20021;-73
2023/06/05 10:46:22;;;;;;;3.15;1.73;;;;;;;42.84;24.87;98731.97;5071939;28;20504;-73
2023/06/05 10:49:10;;;;;;;5.72;1.70;;;;;;;43.62;23.74;98723.72;5051072;28;20401;-73
2023/06/05 10:51:37;;;;;;;4.40;1.67;;;;;;;42.90;24.75;98731.09;5035679;28;20037;-72
2023/06/05 10:54:04;;;;;;;4.25;2.00;;;;;;;42.80;24.49;98725.50;5063868;28;20017;-73
2023/06/05 10:57:01;;;;;;;2.43;1.70;;;;;;;43.38;24.02;98720.78;5042139;28;20033;-73
2023/06/05 10:59:29;;;;;;;4.05;1.92;;;;;;;43.90;24.09;98713.97;5071594;28;20132;-73
2023/06/05 11:02:16;;;;;;;;;;;;;;;42.99;23.38;98718.38;5045156;28;20028;-72
2023/06/05 11:04:42;;;;;;;4.60;1.80;;;;;;;41.99;24.67;98712.38;5052342;28;19909;-72
2023/06/05 11:07:21;;;;;;;4.40;1.95;;;;;;;40.07;26.10;98711.69;5070344;28;20025;-73
2023/06/05 11:10:04;;;;;;;4.50;1.52;;;;;;;41.68;25.09;98719.84;5071466;28;20044;-72
2023/06/05 11:12:39;;;;;;;3.53;1.50;;;;;;;42.94;23.68;98721.69;5073708;28;20059;-72
2023/06/05 11:15:06;;;;;;;2.60;1.60;;;;;;;43.57;23.48;98710.75;5071791;28;20027;-73
2023/06/05 11:17:33;;;;;;;3.63;1.88;;;;;;;44.27;23.33;98712.97;5071070;28;20034;-73
2023/06/05 11:20:00;;;;;;;5.03;2.07;;;;;;;43.99;22.83;98708.53;5067605;28;20020;-72
2023/06/05 11:22:26;;;;;;;6.47;2.10;;;;;;;43.74;23.24;98704.00;5053958;28;20048;-73
2023/06/05 11:25:21;;;;;;;4.18;1.65;;;;;;;43.61;22.29;98711.53;5067752;28;20517;-72
2023/06/05 11:27:51;;;;;;;4.47;1.73;;;;;;;44.22;22.22;98706.94;5043055;28;20098;-73
2023/06/05 11:30:18;;;;;;;8.27;2.03;;;;;;;44.73;23.08;98708.50;5054252;28;20490;-73
2023/06/05 11:32:44;;;;;;;4.07;1.67;;;;;;;42.17;23.71;98694.38;5062071;28;20024;-73